createdAt,value
2022-11-28T00:00:27.702Z,6.25
2022-11-28T00:03:39.722Z,7.93
2022-11-28T00:06:27.650Z,9.60
2022-11-28T00:09:15.374Z,8.50
2022-11-28T00:12:11.033Z,7.78
2022-11-28T00:14:57.782Z,6.20
2022-11-28T00:17:45.820Z,5.85
2022-11-28T00:20:33.485Z,6.63
2022-11-28T00:23:20.772Z,6.18
2022-11-28T00:53:27.638Z,5.78
2022-11-28T01:02:02.755Z,7.10
2022-11-28T01:16:11.967Z,5.72
2022-11-28T01:24:16.788Z,7.30
2022-11-28T01:54:16.442Z,5.97
2022-11-28T04:18:57.864Z,5.25
2022-11-28T04:21:58.593Z,5.15
2022-11-28T04:24:51.357Z,4.60
2022-11-28T04:28:01.813Z,4.63
2022-11-28T04:30:50.535Z,5.00
2022-11-28T04:33:43.799Z,5.40
2022-11-28T04:36:32.963Z,5.57
2022-11-28T04:39:23.273Z,5.50
2022-11-28T04:42:21.454Z,5.00
2022-11-28T04:45:28.525Z,5.35
2022-11-28T04:48:14.461Z,5.25
2022-11-28T04:51:09.382Z,4.78
2022-11-28T04:54:06.828Z,4.47
2022-11-28T04:57:12.139Z,4.40
2022-11-28T05:00:01.151Z,4.40
2022-11-28T05:02:51.591Z,4.57
2022-11-28T05:05:50.310Z,5.60
2022-11-28T05:08:36.496Z,3.85
2022-11-28T05:11:22.727Z,5.00
2022-11-28T05:14:09.034Z,5.45
2022-11-28T05:16:55.030Z,3.67
2022-11-28T05:19:40.901Z,3.35
2022-11-28T05:22:26.851Z,3.67
2022-11-28T05:25:12.806Z,3.78
2022-11-28T05:27:59.135Z,4.15
2022-11-28T05:30:45.381Z,3.45
2022-11-28T05:33:32.496Z,3.72
2022-11-28T05:36:18.855Z,4.97
2022-11-28T05:39:04.769Z,6.93
2022-11-28T05:41:50.822Z,4.88
2022-11-28T05:44:37.804Z,4.28
2022-11-28T05:47:25.176Z,5.47
2022-11-28T05:50:11.171Z,6.15
2022-11-28T05:52:57.369Z,5.05
2022-11-28T05:55:43.419Z,4.75
2022-11-28T05:58:29.505Z,6.55
2022-11-28T06:01:20.255Z,4.63
2022-11-28T06:04:06.616Z,6.47
2022-11-28T06:06:52.980Z,5.13
2022-11-28T06:09:38.950Z,5.93
2022-11-28T06:12:24.846Z,5.00
2022-11-28T06:15:11.074Z,5.47
2022-11-28T06:17:57.170Z,5.78
2022-11-28T06:20:43.155Z,5.00
2022-11-28T06:23:29.414Z,4.65
2022-11-28T06:26:18.078Z,5.00
2022-11-28T06:29:04.788Z,4.53
2022-11-28T06:31:50.640Z,5.72
2022-11-28T06:34:37.310Z,3.88
2022-11-28T06:37:24.011Z,4.97
2022-11-28T06:40:10.192Z,6.38
2022-11-28T06:42:56.119Z,5.70
2022-11-28T06:45:44.002Z,4.97
2022-11-28T06:48:30.511Z,5.40
2022-11-28T06:51:17.883Z,4.60
2022-11-28T06:54:03.846Z,6.55
2022-11-28T06:56:50.444Z,6.05
2022-11-28T06:59:36.341Z,8.20
2022-11-28T07:02:24.983Z,7.80
2022-11-28T07:05:11.572Z,6.60
2022-11-28T07:07:58.698Z,4.50
2022-11-28T07:10:47.881Z,5.25
2022-11-28T07:13:34.010Z,5.85
2022-11-28T07:16:23.282Z,5.28
2022-11-28T07:19:12.575Z,5.32
2022-11-28T07:21:58.738Z,5.20
2022-11-28T07:24:44.528Z,5.38
2022-11-28T07:27:30.522Z,5.07
2022-11-28T07:30:17.020Z,4.95
2022-11-28T07:33:03.362Z,6.75
2022-11-28T07:35:49.411Z,6.13
2022-11-28T07:38:36.516Z,5.57
2022-11-28T07:41:26.432Z,5.13
2022-11-28T07:44:13.157Z,6.25
2022-11-28T07:46:59.421Z,5.25
2022-11-28T07:49:45.528Z,6.18
2022-11-28T07:52:31.689Z,7.18
2022-11-28T07:55:17.851Z,5.72
2022-11-28T07:58:07.257Z,6.03
2022-11-28T08:00:53.860Z,6.22
2022-11-28T08:03:40.398Z,5.55
2022-11-28T08:06:28.527Z,6.47
2022-11-28T08:09:17.472Z,5.78
2022-11-28T08:12:03.611Z,6.38
2022-11-28T08:14:50.327Z,5.20
2022-11-28T08:17:39.979Z,6.90
2022-11-28T08:20:25.780Z,5.40
2022-11-28T08:23:11.960Z,5.55
2022-11-28T08:25:59.911Z,5.90
2022-11-28T08:28:46.207Z,5.68
2022-11-28T08:31:35.249Z,5.18
2022-11-28T08:34:21.755Z,6.57
2022-11-28T08:37:08.088Z,5.30
2022-11-28T08:39:53.976Z,5.68
2022-11-28T08:42:40.005Z,5.63
2022-11-28T08:45:25.885Z,5.93
2022-11-28T08:48:11.753Z,6.32
2022-11-28T08:50:57.594Z,6.18
2022-11-28T08:53:48.687Z,7.05
2022-11-28T08:56:35.588Z,7.22
2022-11-28T08:59:22.392Z,7.13
2022-11-28T09:02:12.527Z,8.05
2022-11-28T09:04:58.420Z,6.85
2022-11-28T09:07:44.378Z,8.90
2022-11-28T09:10:30.286Z,11.18
2022-11-28T09:13:16.151Z,13.35
2022-11-28T09:16:02.854Z,10.57
2022-11-28T09:18:48.863Z,7.72
2022-11-28T09:21:35.391Z,7.25
2022-11-28T09:24:21.466Z,7.22
2022-11-28T09:27:07.187Z,6.20
2022-11-28T09:29:53.256Z,7.70
2022-11-28T09:32:42.382Z,6.68
2022-11-28T09:35:28.710Z,6.43
2022-11-28T09:38:14.840Z,6.82
2022-11-28T09:41:02.698Z,5.80
2022-11-28T09:43:54.734Z,5.93
2022-11-28T09:46:42.867Z,5.88
2022-11-28T09:49:40.721Z,5.40
2022-11-28T09:52:33.823Z,5.70
2022-11-28T09:55:39.152Z,7.00
2022-11-28T09:58:40.135Z,7.13
2022-11-28T10:01:34.290Z,7.80
2022-11-28T10:04:29.511Z,5.95
2022-11-28T10:07:41.853Z,6.60
2022-11-28T10:10:58.985Z,6.60
2022-11-28T10:14:08.931Z,6.53
2022-11-28T10:17:16.060Z,5.00
2022-11-28T10:20:29.441Z,5.63
2022-11-28T10:23:24.797Z,3.90
2022-11-28T10:26:33.235Z,4.75
2022-11-28T10:29:27.774Z,3.60
2022-11-28T10:32:20.532Z,3.97
2022-11-28T10:35:29.406Z,4.05
2022-11-28T10:38:17.078Z,4.85
2022-11-28T10:41:32.971Z,3.72
2022-11-28T10:44:28.963Z,3.75
2022-11-28T10:47:48.514Z,3.63
2022-11-28T10:50:49.832Z,3.33
2022-11-28T10:54:06.938Z,2.50
2022-11-28T10:57:02.218Z,2.17
2022-11-28T11:00:03.826Z,2.50
2022-11-28T11:02:56.454Z,2.53
2022-11-28T11:05:42.475Z,2.30
2022-11-28T11:08:33.723Z,2.35
2022-11-28T11:11:30.438Z,1.80
2022-11-28T11:14:33.498Z,2.20
2022-11-28T11:17:39.641Z,2.55
2022-11-28T11:20:33.836Z,1.90
2022-11-28T11:23:22.751Z,2.10
2022-11-28T11:26:19.687Z,2.47
2022-11-28T11:29:06.562Z,1.40
2022-11-28T11:31:54.134Z,2.38
2022-11-28T11:34:45.942Z,1.40
2022-11-28T11:37:37.725Z,1.58
2022-11-28T11:40:29.445Z,1.95
2022-11-28T11:43:31.766Z,2.22
2022-11-28T11:46:18.136Z,1.50
2022-11-28T11:49:04.003Z,1.80
2022-11-28T11:51:57.103Z,2.00
2022-11-28T11:54:59.732Z,1.90
2022-11-28T11:57:53.977Z,2.20
2022-11-28T12:00:40.950Z,2.03
2022-11-28T12:03:51.634Z,1.67
2022-11-28T12:06:40.170Z,2.00
2022-11-28T12:09:40.501Z,1.90
2022-11-28T12:12:30.678Z,1.58
2022-11-28T12:15:38.629Z,1.73
2022-11-28T12:18:36.755Z,2.45
2022-11-28T12:22:12.996Z,1.65
2022-11-28T12:25:17.459Z,2.70
2022-11-28T12:28:21.915Z,2.40
2022-11-28T12:31:18.347Z,3.63
2022-11-28T12:34:30.394Z,3.55
2022-11-28T12:37:42.537Z,3.40
2022-11-28T12:40:44.435Z,3.38
2022-11-28T12:43:50.855Z,2.50
2022-11-28T12:46:51.408Z,2.90
2022-11-28T12:49:56.412Z,3.20
2022-11-28T12:52:58.723Z,3.10
2022-11-28T12:56:07.787Z,2.45
2022-11-28T12:59:03.563Z,2.63
2022-11-28T13:02:24.040Z,2.20
2022-11-28T13:05:28.824Z,2.40
2022-11-28T13:11:43.980Z,2.85
2022-11-28T13:14:41.705Z,3.03
2022-11-28T13:18:03.231Z,2.90
2022-11-28T13:20:58.840Z,3.05
2022-11-28T13:24:08.746Z,3.35
2022-11-28T13:27:25.977Z,3.03
2022-11-28T13:30:25.461Z,2.70
2022-11-28T13:33:30.630Z,3.45
2022-11-28T13:40:01.512Z,3.25
2022-11-28T13:43:06.699Z,3.25
2022-11-28T13:45:54.514Z,3.20
2022-11-28T13:49:12.659Z,3.45
2022-11-28T13:51:48.087Z,4.00
2022-11-28T13:54:34.798Z,3.80
2022-11-28T13:57:24.787Z,4.32
2022-11-28T14:00:23.915Z,4.03
2022-11-28T14:03:21.154Z,4.47
2022-11-28T14:06:07.863Z,5.07
2022-11-28T14:09:09.222Z,5.90
2022-11-28T14:12:14.070Z,5.57
2022-11-28T14:15:43.530Z,5.57
2022-11-28T14:18:58.728Z,7.50
2022-11-28T14:21:59.712Z,9.73
2022-11-28T14:25:18.638Z,11.18
2022-11-28T14:28:14.690Z,10.70
2022-11-28T14:31:24.250Z,11.75
2022-11-28T14:34:37.028Z,10.07
2022-11-28T14:37:29.379Z,8.98
2022-11-28T14:40:52.913Z,9.13
2022-11-28T14:43:45.885Z,8.45
2022-11-28T14:46:32.708Z,7.63
2022-11-28T14:49:20.172Z,6.43
2022-11-28T14:52:37.109Z,6.18
2022-11-28T14:55:21.463Z,7.45
2022-11-28T14:58:16.706Z,5.90
2022-11-28T15:01:07.965Z,4.75
2022-11-28T15:04:54.862Z,5.30
2022-11-28T15:08:26.164Z,4.85
2022-11-28T15:11:44.722Z,4.40
2022-11-28T15:14:33.984Z,4.57
2022-11-28T15:17:28.411Z,4.25
2022-11-28T15:20:23.055Z,3.60
2022-11-28T15:23:35.520Z,3.75
2022-11-28T15:26:28.190Z,3.38
2022-11-28T15:29:21.475Z,4.50
2022-11-28T15:32:07.935Z,4.25
2022-11-28T15:35:10.912Z,4.38
2022-11-28T15:40:51.529Z,3.90
2022-11-28T15:43:42.054Z,3.88
2022-11-28T15:46:34.169Z,3.53
2022-11-28T15:49:35.231Z,3.40
2022-11-28T15:52:21.479Z,3.50
2022-11-28T15:55:20.227Z,2.90
2022-11-28T15:58:32.790Z,3.75
2022-11-28T16:01:24.323Z,3.05
2022-11-28T16:04:17.614Z,5.07
2022-11-28T16:07:04.147Z,7.50
2022-11-28T16:10:03.853Z,10.30
2022-11-28T16:12:51.775Z,10.32
2022-11-28T16:15:38.948Z,10.93
2022-11-28T16:18:27.495Z,9.20
2022-11-28T16:21:14.618Z,8.23
2022-11-28T16:24:01.710Z,10.13
2022-11-28T16:26:59.980Z,11.20
2022-11-28T16:29:46.857Z,10.52
2022-11-28T16:32:38.884Z,9.63
2022-11-28T16:35:33.976Z,9.63
2022-11-28T16:38:23.715Z,9.95
2022-11-28T16:41:32.982Z,10.10
2022-11-28T16:44:23.847Z,10.23
2022-11-28T16:47:29.328Z,9.27
2022-11-28T16:50:21.532Z,8.43
2022-11-28T16:53:27.129Z,8.88
2022-11-28T16:56:25.474Z,8.77
2022-11-28T16:59:15.937Z,9.30
2022-11-28T17:02:02.388Z,8.45
2022-11-28T17:04:49.701Z,10.10
2022-11-28T17:07:35.698Z,10.07
2022-11-28T17:10:21.744Z,10.27
2022-11-28T17:13:12.503Z,9.20
2022-11-28T17:15:59.645Z,10.68
2022-11-28T17:18:46.272Z,12.60
2022-11-28T17:21:42.694Z,11.10
2022-11-28T17:24:34.519Z,12.63
2022-11-28T17:27:21.079Z,12.50
2022-11-28T17:30:07.791Z,13.88
2022-11-28T17:32:53.680Z,14.63
2022-11-28T17:35:43.115Z,15.50
2022-11-28T17:38:33.195Z,14.70
2022-11-28T17:41:19.459Z,13.70
2022-11-28T17:44:06.211Z,15.32
2022-11-28T17:46:53.455Z,16.38
2022-11-28T17:49:45.956Z,19.80
2022-11-28T17:52:32.808Z,17.90
2022-11-28T17:55:20.656Z,17.23
2022-11-28T17:58:07.591Z,17.30
2022-11-28T18:00:59.987Z,14.98
2022-11-28T18:03:47.159Z,12.53
2022-11-28T18:06:33.670Z,11.80
2022-11-28T18:09:19.967Z,13.55
2022-11-28T18:12:06.662Z,12.75
2022-11-28T18:14:53.312Z,15.05
2022-11-28T18:17:39.311Z,15.10
2022-11-28T18:20:28.885Z,16.25
2022-11-28T18:23:15.640Z,16.90
2022-11-28T18:26:13.873Z,15.10
2022-11-28T18:29:01.671Z,15.57
2022-11-28T18:31:50.612Z,13.70
2022-11-28T18:34:36.963Z,14.65
2022-11-28T18:37:22.807Z,15.60
2022-11-28T18:40:09.729Z,14.35
2022-11-28T18:42:56.628Z,7.78
2022-11-28T18:45:42.602Z,5.30
2022-11-28T18:48:28.671Z,5.47
2022-11-28T18:51:20.513Z,5.47
2022-11-28T18:54:09.711Z,4.57
2022-11-28T18:56:55.688Z,3.88
2022-11-28T18:59:47.814Z,3.33
2022-11-28T19:02:37.448Z,4.25
2022-11-28T19:05:23.623Z,2.63
2022-11-28T19:08:10.215Z,2.17
2022-11-28T19:10:56.226Z,2.42
2022-11-28T19:13:47.176Z,4.47
2022-11-28T19:16:35.680Z,3.00
2022-11-28T19:19:21.582Z,2.50
2022-11-28T19:22:08.903Z,3.10
2022-11-28T19:24:54.924Z,2.88
2022-11-28T19:27:41.424Z,2.67
2022-11-28T19:30:27.420Z,3.15
2022-11-28T19:33:13.232Z,3.53
2022-11-28T19:36:03.580Z,4.78
2022-11-28T19:38:50.024Z,4.78
2022-11-28T19:41:37.076Z,5.32
2022-11-28T19:44:24.617Z,5.90
2022-11-28T19:47:12.629Z,6.35
2022-11-28T19:49:58.713Z,6.63
2022-11-28T19:52:44.706Z,6.80
2022-11-28T19:55:31.935Z,7.93
2022-11-28T19:58:18.812Z,7.78
2022-11-28T20:01:07.362Z,10.00
2022-11-28T20:03:54.130Z,13.52
2022-11-28T20:06:40.471Z,12.32
2022-11-28T20:09:28.461Z,11.40
2022-11-28T20:12:14.667Z,12.85
2022-11-28T20:15:02.284Z,13.93
2022-11-28T20:17:48.423Z,12.02
2022-11-28T20:20:37.038Z,13.63
2022-11-28T20:23:23.035Z,12.95
2022-11-28T20:26:10.582Z,13.57
2022-11-28T20:28:57.558Z,12.70
2022-11-28T20:31:46.021Z,11.65
2022-11-28T20:34:34.566Z,11.93
2022-11-28T20:37:20.854Z,11.90
2022-11-28T20:40:07.498Z,12.63
2022-11-28T20:42:53.310Z,12.10
2022-11-28T20:45:39.275Z,12.70
2022-11-28T20:48:25.343Z,11.60
2022-11-28T20:51:14.206Z,11.38
2022-11-28T20:54:01.024Z,10.80
2022-11-28T20:57:13.264Z,12.90
2022-11-28T20:59:56.653Z,12.10
2022-11-28T21:02:44.615Z,11.60
2022-11-28T21:05:30.715Z,10.77
2022-11-28T21:08:17.042Z,12.07
2022-11-28T21:11:55.622Z,12.05
2022-11-28T21:14:37.107Z,11.70
2022-11-28T21:17:23.139Z,11.73
2022-11-28T21:20:09.810Z,12.82
2022-11-28T21:22:55.767Z,12.18
2022-11-28T21:25:43.416Z,12.07
2022-11-28T21:28:29.320Z,12.60
2022-11-28T21:31:23.809Z,14.07
2022-11-28T21:34:14.647Z,14.98
2022-11-28T21:37:00.963Z,17.30
2022-11-28T21:39:47.314Z,15.90
2022-11-28T21:42:33.242Z,14.35
2022-11-28T21:45:19.332Z,12.73
2022-11-28T21:48:05.710Z,14.18
2022-11-28T21:50:51.638Z,11.98
2022-11-28T21:53:37.388Z,11.27
2022-11-28T21:56:25.331Z,10.10
2022-11-28T21:59:12.325Z,10.77
2022-11-28T22:02:04.035Z,10.68
2022-11-28T22:04:54.795Z,11.32
2022-11-28T22:07:41.242Z,10.85
2022-11-28T22:10:27.387Z,11.98
2022-11-28T22:13:13.578Z,11.43
2022-11-28T22:15:59.605Z,11.00
2022-11-28T22:18:46.716Z,12.27
2022-11-28T22:24:39.594Z,11.98
2022-11-28T22:27:26.019Z,10.77
2022-11-28T22:30:12.542Z,10.27
2022-11-28T22:32:58.505Z,10.45
2022-11-28T22:35:45.528Z,11.25
2022-11-28T22:38:32.281Z,10.32
2022-11-28T22:41:26.343Z,11.30
2022-11-28T22:44:13.882Z,11.07
2022-11-28T22:46:59.821Z,11.23
2022-11-28T22:49:46.178Z,12.15
2022-11-28T22:52:32.899Z,10.45
2022-11-28T22:55:18.779Z,11.10
2022-11-28T22:58:04.886Z,11.05
2022-11-28T23:00:51.098Z,11.38
2022-11-28T23:03:39.921Z,12.88
2022-11-28T23:06:32.419Z,11.68
2022-11-28T23:09:18.674Z,11.18
2022-11-28T23:12:04.761Z,10.15
2022-11-28T23:14:51.761Z,10.95
2022-11-28T23:17:38.227Z,11.05
2022-11-28T23:20:24.612Z,10.30
2022-11-28T23:23:10.456Z,11.20
2022-11-28T23:26:05.265Z,10.07
2022-11-28T23:28:53.494Z,9.82
2022-11-28T23:31:41.789Z,9.57
2022-11-28T23:34:28.147Z,9.57
2022-11-28T23:37:14.466Z,10.35
2022-11-28T23:40:00.762Z,10.55
2022-11-28T23:42:46.976Z,9.85
2022-11-28T23:45:33.041Z,10.15
2022-11-28T23:48:19.559Z,11.13
2022-11-28T23:51:06.800Z,9.75
2022-11-28T23:53:53.334Z,11.95
2022-11-28T23:56:41.511Z,9.65
2022-11-28T23:59:28.053Z,10.60
